createdAt,value
2019-04-23T00:00:17.056Z,959.15
2019-04-23T00:01:25.469Z,959.15
2019-04-23T00:03:06.936Z,959.15
2019-04-23T00:06:07.330Z,959.07
2019-04-23T00:08:52.195Z,959.08
2019-04-23T00:09:47.050Z,959.09
2019-04-23T00:11:51.747Z,959.05
2019-04-23T00:12:44.046Z,959.05
2019-04-23T00:14:38.006Z,959.00
2019-04-23T00:15:26.642Z,958.98
2019-04-23T00:17:30.464Z,958.93
2019-04-23T00:18:30.153Z,958.92
2019-04-23T00:20:14.405Z,958.96
2019-04-23T00:21:23.498Z,958.91
2019-04-23T00:23:10.681Z,958.84
2019-04-23T00:24:17.464Z,958.84
2019-04-23T00:27:17.067Z,958.80
2019-04-23T00:28:58.851Z,958.74
2019-04-23T00:29:57.630Z,958.70
2019-04-23T00:31:57.632Z,958.66
2019-04-23T00:32:51.645Z,958.68
2019-04-23T00:33:46.446Z,958.71
2019-04-23T00:35:16.017Z,958.65
2019-04-23T00:35:48.664Z,958.62
2019-04-23T00:37:01.585Z,958.65
2019-04-23T00:38:06.569Z,958.65
2019-04-23T00:38:44.974Z,958.53
2019-04-23T00:39:49.953Z,958.56
2019-04-23T00:42:08.291Z,958.54
2019-04-23T00:42:47.785Z,958.48
2019-04-23T00:43:48.613Z,958.42
2019-04-23T00:46:46.557Z,958.42
2019-04-23T00:48:52.237Z,958.38
2019-04-23T00:49:51.684Z,958.36
2019-04-23T00:50:52.972Z,958.37
2019-04-23T00:52:07.013Z,958.37
2019-04-23T00:52:48.737Z,958.42
2019-04-23T00:53:43.987Z,958.38
2019-04-23T00:54:49.038Z,958.37
2019-04-23T00:55:47.580Z,958.33
2019-04-23T00:57:48.739Z,958.36
2019-04-23T00:58:48.025Z,958.33
2019-04-23T00:59:53.613Z,958.33
2019-04-23T01:00:47.315Z,958.29
2019-04-23T01:01:49.687Z,958.31
2019-04-23T01:03:48.368Z,958.26
2019-04-23T01:04:47.674Z,958.23
2019-04-23T01:05:48.885Z,958.21
2019-04-23T01:06:51.195Z,958.20
2019-04-23T01:07:47.477Z,958.20
2019-04-23T01:08:49.801Z,958.21
2019-04-23T01:09:54.239Z,958.20
2019-04-23T01:10:52.362Z,958.20
2019-04-23T01:11:44.884Z,958.21
2019-04-23T01:14:50.062Z,958.18
2019-04-23T01:15:46.761Z,958.16
2019-04-23T01:16:42.449Z,958.11
2019-04-23T01:17:47.234Z,958.10
2019-04-23T01:20:08.460Z,958.13
2019-04-23T01:20:50.195Z,958.06
2019-04-23T01:21:26.455Z,958.05
2019-04-23T01:22:25.203Z,958.02
2019-04-23T01:23:33.735Z,958.02
2019-04-23T01:24:28.881Z,958.00
2019-04-23T01:25:39.467Z,958.00
2019-04-23T01:26:50.370Z,958.00
2019-04-23T01:28:03.950Z,957.95
2019-04-23T01:28:55.940Z,957.95
2019-04-23T01:29:52.413Z,957.94
2019-04-23T01:30:57.087Z,957.92
2019-04-23T01:31:52.719Z,957.92
2019-04-23T01:32:48.411Z,957.86
2019-04-23T01:33:53.161Z,957.87
2019-04-23T01:35:05.098Z,957.84
2019-04-23T01:36:04.584Z,957.78
2019-04-23T01:36:54.129Z,957.82
2019-04-23T01:37:47.809Z,957.84
2019-04-23T01:39:08.515Z,957.78
2019-04-23T01:39:52.905Z,957.74
2019-04-23T01:41:07.698Z,957.74
2019-04-23T01:41:58.321Z,957.70
2019-04-23T01:43:51.261Z,957.67
2019-04-23T01:45:01.395Z,957.68
2019-04-23T01:45:44.068Z,957.64
2019-04-23T01:47:49.604Z,957.63
2019-04-23T01:48:55.178Z,957.57
2019-04-23T01:50:01.978Z,957.59
2019-04-23T01:51:55.219Z,957.54
2019-04-23T01:52:52.704Z,957.56
2019-04-23T01:53:49.691Z,957.53
2019-04-23T01:54:52.842Z,957.51
2019-04-23T01:55:51.141Z,957.48
2019-04-23T01:56:47.160Z,957.51
2019-04-23T01:57:58.906Z,957.46
2019-04-23T01:59:09.452Z,957.51
2019-04-23T01:59:54.659Z,957.41
2019-04-23T02:02:08.707Z,957.37
2019-04-23T02:02:55.687Z,957.35
2019-04-23T02:03:54.406Z,957.42
2019-04-23T02:04:55.792Z,957.38
2019-04-23T02:05:48.057Z,957.35
2019-04-23T02:06:51.746Z,957.39
2019-04-23T02:08:53.579Z,957.36
2019-04-23T02:09:55.304Z,957.37
2019-04-23T02:11:05.367Z,957.35
2019-04-23T02:11:55.238Z,957.33
2019-04-23T02:12:57.043Z,957.30
2019-04-23T02:13:55.397Z,957.27
2019-04-23T02:14:49.918Z,957.30
2019-04-23T02:15:49.513Z,957.28
2019-04-23T02:16:50.284Z,957.26
2019-04-23T02:17:53.236Z,957.27
2019-04-23T02:18:56.228Z,957.26
2019-04-23T02:19:59.628Z,957.28
2019-04-23T02:20:47.897Z,957.24
2019-04-23T02:21:52.792Z,957.25
2019-04-23T02:22:54.314Z,957.20
2019-04-23T02:23:52.171Z,957.20
2019-04-23T02:24:55.912Z,957.20
2019-04-23T02:27:05.814Z,957.17
2019-04-23T02:29:14.641Z,957.20
2019-04-23T02:31:14.760Z,957.19
2019-04-23T02:33:23.818Z,957.15
2019-04-23T02:36:54.478Z,957.12
2019-04-23T02:38:00.652Z,957.08
2019-04-23T02:41:04.761Z,957.08
2019-04-23T02:44:04.267Z,957.02
2019-04-23T02:44:56.323Z,957.00
2019-04-23T02:47:01.531Z,956.99
2019-04-23T02:48:01.476Z,956.99
2019-04-23T02:49:00.021Z,957.00
2019-04-23T02:52:56.123Z,956.94
2019-04-23T02:54:03.994Z,956.91
2019-04-23T02:56:12.229Z,956.87
2019-04-23T02:57:11.835Z,956.91
2019-04-23T02:58:11.077Z,956.95
2019-04-23T03:01:19.530Z,956.84
2019-04-23T03:02:12.053Z,956.88
2019-04-23T03:03:59.824Z,956.84
2019-04-23T03:05:57.239Z,956.85
2019-04-23T03:07:15.948Z,956.78
2019-04-23T03:07:52.758Z,956.79
2019-04-23T03:12:00.736Z,956.73
2019-04-23T03:12:59.180Z,956.73
2019-04-23T03:14:59.180Z,956.71
2019-04-23T03:16:06.544Z,956.67
2019-04-23T03:17:03.357Z,956.68
2019-04-23T03:17:59.149Z,956.67
2019-04-23T03:19:59.045Z,956.62
2019-04-23T03:21:07.498Z,956.63
2019-04-23T03:23:03.082Z,956.62
2019-04-23T03:24:04.427Z,956.60
2019-04-23T03:25:12.963Z,956.56
2019-04-23T03:25:57.037Z,956.55
2019-04-23T03:27:08.137Z,956.56
2019-04-23T03:27:50.211Z,956.56
2019-04-23T03:35:00.205Z,956.48
2019-04-23T03:41:11.903Z,956.36
2019-04-23T03:41:53.891Z,956.37
2019-04-23T03:43:01.331Z,956.32
2019-04-23T03:44:01.487Z,956.36
2019-04-23T03:44:57.665Z,956.38
2019-04-23T03:46:16.110Z,956.36
2019-04-23T03:46:51.441Z,956.35
2019-04-23T03:47:56.198Z,956.34
2019-04-23T03:50:43.613Z,956.32
2019-04-23T03:52:46.825Z,956.28
2019-04-23T03:54:08.118Z,956.29
2019-04-23T03:56:02.353Z,956.28
2019-04-23T03:57:12.524Z,956.26
2019-04-23T03:57:58.078Z,956.27
2019-04-23T03:59:03.461Z,956.25
2019-04-23T04:00:12.467Z,956.25
2019-04-23T04:02:04.446Z,956.26
2019-04-23T04:04:44.589Z,956.23
2019-04-23T04:05:57.948Z,956.26
2019-04-23T04:07:08.433Z,956.27
2019-04-23T04:08:06.818Z,956.23
2019-04-23T04:09:13.250Z,956.24
2019-04-23T04:11:09.973Z,956.23
2019-04-23T04:11:52.248Z,956.23
2019-04-23T04:12:46.065Z,956.20
2019-04-23T04:14:04.752Z,956.20
2019-04-23T04:14:59.164Z,956.22
2019-04-23T04:18:01.727Z,956.25
2019-04-23T04:18:57.274Z,956.23
2019-04-23T04:23:07.805Z,956.25
2019-04-23T04:24:05.182Z,956.22
2019-04-23T04:24:49.160Z,956.19
2019-04-23T04:27:01.738Z,956.19
2019-04-23T04:28:12.329Z,956.22
2019-04-23T04:29:00.835Z,956.18
2019-04-23T04:29:54.877Z,956.23
2019-04-23T04:30:49.211Z,956.22
2019-04-23T04:31:52.198Z,956.24
2019-04-23T04:33:16.681Z,956.22
2019-04-23T04:35:12.938Z,956.22
2019-04-23T04:36:13.196Z,956.22
2019-04-23T04:37:16.751Z,956.21
2019-04-23T04:38:05.744Z,956.20
2019-04-23T04:38:59.094Z,956.22
2019-04-23T04:44:54.707Z,956.20
2019-04-23T04:45:20.819Z,956.20
2019-04-23T04:46:04.800Z,956.22
2019-04-23T04:46:50.467Z,956.21
2019-04-23T04:47:44.946Z,956.15
2019-04-23T04:48:56.173Z,956.13
2019-04-23T04:49:55.800Z,956.11
2019-04-23T04:52:15.638Z,956.08
2019-04-23T04:54:06.429Z,956.11
2019-04-23T04:54:44.562Z,956.14
2019-04-23T04:55:54.824Z,956.14
2019-04-23T04:56:56.602Z,956.19
2019-04-23T04:57:52.310Z,956.16
2019-04-23T04:58:59.616Z,956.14
2019-04-23T05:00:05.593Z,956.13
2019-04-23T05:01:06.211Z,956.15
2019-04-23T05:02:01.542Z,956.12
2019-04-23T05:03:58.245Z,956.14
2019-04-23T05:04:59.648Z,956.11
2019-04-23T05:06:04.940Z,956.08
2019-04-23T05:07:02.567Z,956.10
2019-04-23T05:08:11.463Z,956.03
2019-04-23T05:08:56.604Z,956.03
2019-04-23T05:09:57.618Z,956.07
2019-04-23T05:12:01.541Z,956.05
2019-04-23T05:13:06.725Z,956.06
2019-04-23T05:16:52.988Z,956.02
2019-04-23T05:19:51.346Z,955.97
2019-04-23T05:20:53.191Z,955.99
2019-04-23T05:21:54.483Z,955.94
2019-04-23T05:23:02.555Z,955.98
2019-04-23T05:23:50.435Z,955.98
2019-04-23T05:24:46.501Z,955.96
2019-04-23T05:25:46.366Z,955.95
2019-04-23T05:26:37.562Z,955.93
2019-04-23T05:27:53.609Z,955.94
2019-04-23T05:28:55.686Z,955.95
2019-04-23T05:29:48.431Z,955.95
2019-04-23T05:31:42.121Z,955.97
2019-04-23T05:32:48.944Z,955.92
2019-04-23T05:33:46.463Z,955.92
2019-04-23T05:34:46.681Z,955.89
2019-04-23T05:36:06.221Z,955.87
2019-04-23T05:36:45.693Z,955.88
2019-04-23T05:38:02.439Z,955.89
2019-04-23T05:39:45.513Z,955.90
2019-04-23T05:41:45.587Z,955.87
2019-04-23T05:42:47.332Z,955.87
2019-04-23T05:43:46.470Z,955.88
2019-04-23T05:44:50.276Z,955.89
2019-04-23T05:45:46.755Z,955.90
2019-04-23T05:46:44.880Z,955.89
2019-04-23T05:47:52.042Z,955.94
2019-04-23T05:48:45.612Z,955.85
2019-04-23T05:49:47.702Z,955.85
2019-04-23T05:50:59.274Z,955.87
2019-04-23T05:51:50.423Z,955.91
2019-04-23T05:52:53.109Z,955.93
2019-04-23T05:53:47.220Z,955.95
2019-04-23T05:54:52.777Z,955.91
2019-04-23T05:55:49.393Z,955.94
2019-04-23T05:56:44.294Z,955.90
2019-04-23T05:57:42.704Z,955.92
2019-04-23T06:01:05.702Z,955.85
2019-04-23T06:01:53.739Z,955.85
2019-04-23T06:02:50.220Z,955.85
2019-04-23T06:03:52.754Z,955.83
2019-04-23T06:04:44.661Z,955.81
2019-04-23T06:05:50.686Z,955.84
2019-04-23T06:08:49.325Z,955.74
2019-04-23T06:09:50.433Z,955.77
2019-04-23T06:10:53.514Z,955.75
2019-04-23T06:11:52.450Z,955.77
2019-04-23T06:12:47.206Z,955.70
2019-04-23T06:13:58.682Z,955.76
2019-04-23T06:14:47.470Z,955.68
2019-04-23T06:15:47.997Z,955.67
2019-04-23T06:17:47.978Z,955.70
2019-04-23T06:18:44.483Z,955.72
2019-04-23T06:19:42.535Z,955.74
2019-04-23T06:20:48.746Z,955.69
2019-04-23T06:23:55.575Z,955.73
2019-04-23T06:24:45.611Z,955.71
2019-04-23T06:26:47.204Z,955.69
2019-04-23T06:27:45.961Z,955.69
2019-04-23T06:28:50.513Z,955.68
2019-04-23T06:29:44.947Z,955.69
2019-04-23T06:30:47.517Z,955.74
2019-04-23T06:32:42.857Z,955.65
2019-04-23T06:33:47.954Z,955.66
2019-04-23T06:34:52.171Z,955.67
2019-04-23T06:35:47.342Z,955.68
2019-04-23T06:36:46.654Z,955.64
2019-04-23T06:38:58.801Z,955.65
2019-04-23T06:41:46.421Z,955.64
2019-04-23T06:42:49.306Z,955.65
2019-04-23T06:43:56.418Z,955.62
2019-04-23T06:44:45.408Z,955.57
2019-04-23T06:45:57.473Z,955.57
2019-04-23T06:46:50.196Z,955.60
2019-04-23T06:47:42.937Z,955.55
2019-04-23T06:48:40.779Z,955.60
2019-04-23T06:49:49.484Z,955.58
2019-04-23T06:50:51.040Z,955.56
2019-04-23T06:51:52.105Z,955.57
2019-04-23T06:52:41.849Z,955.60
2019-04-23T06:53:43.498Z,955.56
2019-04-23T06:54:47.744Z,955.53
2019-04-23T06:55:42.524Z,955.55
2019-04-23T06:56:54.378Z,955.53
2019-04-23T06:57:42.614Z,955.57
2019-04-23T06:58:43.958Z,955.60
2019-04-23T06:59:41.272Z,955.58
2019-04-23T07:00:48.847Z,955.59
2019-04-23T07:01:54.449Z,955.59
2019-04-23T07:02:44.293Z,955.66
2019-04-23T07:04:55.441Z,955.72
2019-04-23T07:05:57.873Z,955.70
2019-04-23T07:06:48.750Z,955.77
2019-04-23T07:07:50.032Z,955.75
2019-04-23T07:09:07.845Z,955.76
2019-04-23T07:09:44.010Z,955.70
2019-04-23T07:10:54.311Z,955.68
2019-04-23T07:11:39.037Z,955.64
2019-04-23T07:13:54.612Z,955.71
2019-04-23T07:15:46.415Z,955.68
2019-04-23T07:16:57.119Z,955.73
2019-04-23T07:17:41.019Z,955.70
2019-04-23T07:19:02.708Z,955.69
2019-04-23T07:19:44.967Z,955.71
2019-04-23T07:20:41.811Z,955.71
2019-04-23T07:21:41.737Z,955.65
2019-04-23T07:22:42.805Z,955.64
2019-04-23T07:23:54.674Z,955.54
2019-04-23T07:24:47.215Z,955.60
2019-04-23T07:25:47.049Z,955.56
2019-04-23T07:27:43.319Z,955.59
2019-04-23T07:28:49.855Z,955.61
2019-04-23T07:29:55.615Z,955.59
2019-04-23T07:30:52.480Z,955.62
2019-04-23T07:31:48.338Z,955.61
2019-04-23T07:32:43.386Z,955.64
2019-04-23T07:33:52.808Z,955.65
2019-04-23T07:34:52.651Z,955.64
2019-04-23T07:35:47.619Z,955.64
2019-04-23T07:36:45.388Z,955.64
2019-04-23T07:37:50.206Z,955.61
2019-04-23T07:38:56.510Z,955.61
2019-04-23T07:39:58.968Z,955.61
2019-04-23T07:40:41.632Z,955.62
2019-04-23T07:41:47.864Z,955.53
2019-04-23T07:42:42.170Z,955.52
2019-04-23T07:43:49.521Z,955.55
2019-04-23T07:44:52.011Z,955.57
2019-04-23T07:45:45.068Z,955.56
2019-04-23T07:46:52.839Z,955.58
2019-04-23T07:47:40.110Z,955.56
2019-04-23T07:48:43.980Z,955.53
2019-04-23T07:49:50.625Z,955.59
2019-04-23T07:51:03.319Z,955.55
2019-04-23T07:51:51.694Z,955.53
2019-04-23T07:52:56.791Z,955.58
2019-04-23T07:53:46.445Z,955.49
2019-04-23T07:54:44.195Z,955.54
2019-04-23T07:56:41.934Z,955.50
2019-04-23T07:57:52.154Z,955.50
2019-04-23T07:58:39.330Z,955.50
2019-04-23T07:59:52.166Z,955.47
2019-04-23T08:00:45.158Z,955.49
2019-04-23T08:01:39.236Z,955.45
2019-04-23T08:02:44.011Z,955.46
2019-04-23T08:03:43.655Z,955.44
2019-04-23T08:04:54.112Z,955.45
2019-04-23T08:05:44.111Z,955.46
2019-04-23T08:06:45.987Z,955.47
2019-04-23T08:07:44.079Z,955.47
2019-04-23T08:08:47.416Z,955.40
2019-04-23T08:09:47.761Z,955.43
2019-04-23T08:11:14.351Z,955.41
2019-04-23T08:11:49.339Z,955.43
2019-04-23T08:12:46.982Z,955.40
2019-04-23T08:14:47.543Z,955.41
2019-04-23T08:16:38.390Z,955.40
2019-04-23T08:17:42.785Z,955.38
2019-04-23T08:18:50.970Z,955.35
2019-04-23T08:19:59.599Z,955.33
2019-04-23T08:21:46.369Z,955.37
2019-04-23T08:22:47.499Z,955.40
2019-04-23T08:23:49.604Z,955.42
2019-04-23T08:24:50.562Z,955.34
2019-04-23T08:25:52.683Z,955.37
2019-04-23T08:26:50.206Z,955.35
2019-04-23T08:27:42.050Z,955.38
2019-04-23T08:28:58.491Z,955.35
2019-04-23T08:29:40.794Z,955.35
2019-04-23T08:30:46.552Z,955.37
2019-04-23T08:31:43.842Z,955.41
2019-04-23T08:32:44.033Z,955.36
2019-04-23T08:33:51.520Z,955.29
2019-04-23T08:34:47.846Z,955.32
2019-04-23T08:35:43.288Z,955.34
2019-04-23T08:38:45.005Z,955.32
2019-04-23T08:40:04.307Z,955.39
2019-04-23T08:41:57.680Z,955.34
2019-04-23T08:43:51.754Z,955.35
2019-04-23T08:45:35.415Z,955.29
2019-04-23T08:46:50.974Z,955.36
2019-04-23T08:47:40.245Z,955.34
2019-04-23T08:48:57.581Z,955.36
2019-04-23T08:52:48.386Z,955.40
2019-04-23T08:53:43.083Z,955.44
2019-04-23T08:56:07.287Z,955.46
2019-04-23T08:56:51.886Z,955.46
2019-04-23T08:57:41.274Z,955.42
2019-04-23T08:58:41.576Z,955.52
2019-04-23T08:59:55.671Z,955.54
2019-04-23T09:00:51.830Z,955.55
2019-04-23T09:01:57.939Z,955.57
2019-04-23T09:02:43.875Z,955.67
2019-04-23T09:03:40.796Z,955.72
2019-04-23T09:04:51.925Z,955.70
2019-04-23T09:05:47.692Z,955.76
2019-04-23T09:06:47.874Z,955.68
2019-04-23T09:07:45.083Z,955.73
2019-04-23T09:08:44.367Z,955.62
2019-04-23T09:11:54.383Z,955.68
2019-04-23T09:14:42.113Z,955.71
2019-04-23T09:15:44.581Z,955.82
2019-04-23T09:16:36.147Z,955.80
2019-04-23T09:17:47.839Z,955.78
2019-04-23T09:19:31.131Z,955.89
2019-04-23T09:20:32.761Z,956.12
2019-04-23T09:23:35.119Z,955.93
2019-04-23T09:25:21.976Z,955.93
2019-04-23T09:26:06.146Z,956.03
2019-04-23T09:27:22.588Z,955.96
2019-04-23T09:29:30.631Z,956.01
2019-04-23T09:31:18.687Z,956.23
2019-04-23T09:33:13.880Z,956.14
2019-04-23T09:34:09.930Z,956.00
2019-04-23T09:36:14.598Z,956.25
2019-04-23T09:37:19.128Z,956.16
2019-04-23T09:38:14.344Z,956.19
2019-04-23T09:40:27.619Z,956.00
2019-04-23T09:41:22.218Z,955.90
2019-04-23T09:42:27.644Z,955.85
2019-04-23T09:43:15.256Z,955.68
2019-04-23T09:44:42.694Z,955.69
2019-04-23T09:45:17.137Z,955.41
2019-04-23T09:46:17.897Z,955.47
2019-04-23T09:47:34.082Z,955.41
2019-04-23T09:48:11.774Z,955.26
2019-04-23T09:49:22.609Z,955.18
2019-04-23T09:50:15.744Z,955.16
2019-04-23T09:51:17.622Z,955.18
2019-04-23T09:53:24.965Z,955.22
2019-04-23T09:54:21.897Z,955.23
2019-04-23T09:55:23.971Z,955.31
2019-04-23T09:56:14.519Z,955.24
2019-04-23T09:57:14.073Z,955.41
2019-04-23T09:58:11.780Z,955.36
2019-04-23T10:00:16.889Z,955.37
2019-04-23T10:01:20.905Z,955.26
2019-04-23T10:02:06.720Z,955.03
2019-04-23T10:03:04.727Z,955.01
2019-04-23T10:04:00.628Z,955.04
2019-04-23T10:05:03.296Z,955.08
2019-04-23T10:05:57.243Z,955.04
2019-04-23T10:07:02.063Z,954.97
2019-04-23T10:08:00.158Z,954.92
2019-04-23T10:08:53.813Z,954.87
2019-04-23T10:09:49.632Z,954.78
2019-04-23T10:10:49.199Z,954.76
2019-04-23T10:11:49.315Z,954.63
2019-04-23T10:12:48.303Z,954.56
2019-04-23T10:13:48.363Z,954.64
2019-04-23T10:14:57.705Z,954.40
2019-04-23T10:15:49.625Z,954.59
2019-04-23T10:16:49.245Z,954.60
2019-04-23T10:17:47.747Z,954.56
2019-04-23T10:18:49.113Z,954.62
2019-04-23T10:19:48.666Z,954.67
2019-04-23T10:20:48.722Z,954.68
2019-04-23T10:21:49.145Z,954.72
2019-04-23T10:22:48.271Z,954.64
2019-04-23T10:23:49.262Z,954.69
2019-04-23T10:24:48.864Z,954.77
2019-04-23T10:25:48.060Z,954.72
2019-04-23T10:26:48.188Z,954.76
2019-04-23T10:27:53.271Z,954.77
2019-04-23T10:28:47.767Z,954.68
2019-04-23T10:29:47.923Z,954.73
2019-04-23T10:30:48.948Z,954.65
2019-04-23T10:31:47.600Z,954.64
2019-04-23T10:32:47.733Z,954.73
2019-04-23T10:33:48.208Z,954.70
2019-04-23T10:34:57.862Z,954.73
2019-04-23T10:35:56.434Z,954.67
2019-04-23T10:36:47.552Z,954.73
2019-04-23T10:37:54.672Z,954.68
2019-04-23T10:38:58.634Z,954.66
2019-04-23T10:39:54.030Z,954.60
2019-04-23T10:40:50.114Z,954.65
2019-04-23T10:41:48.808Z,954.58
2019-04-23T10:42:48.426Z,954.54
2019-04-23T10:43:50.297Z,954.52
2019-04-23T10:44:50.424Z,954.55
2019-04-23T10:46:07.920Z,954.55
2019-04-23T10:47:15.179Z,954.49
2019-04-23T10:48:21.678Z,954.52
2019-04-23T10:49:31.785Z,954.50
2019-04-23T10:50:18.531Z,954.48
2019-04-23T10:51:18.068Z,954.53
2019-04-23T10:53:26.863Z,954.48
2019-04-23T10:54:35.041Z,954.51
2019-04-23T10:55:22.342Z,954.53
2019-04-23T10:56:18.293Z,954.44
2019-04-23T10:57:31.664Z,954.41
2019-04-23T10:58:15.750Z,954.40
2019-04-23T10:59:19.596Z,954.34
2019-04-23T11:00:22.576Z,954.42
2019-04-23T11:01:21.303Z,954.34
2019-04-23T11:03:39.093Z,954.41
2019-04-23T11:04:33.819Z,954.36
2019-04-23T11:05:17.952Z,954.32
2019-04-23T11:06:26.845Z,954.34
2019-04-23T11:07:28.413Z,954.30
2019-04-23T11:08:20.382Z,954.20
2019-04-23T11:09:38.046Z,954.24
2019-04-23T11:10:15.621Z,954.28
2019-04-23T11:11:25.524Z,954.22
2019-04-23T11:12:28.921Z,954.31
2019-04-23T11:13:17.563Z,954.30
2019-04-23T11:14:23.040Z,954.32
2019-04-23T11:15:28.710Z,954.36
2019-04-23T11:17:21.539Z,954.34
2019-04-23T11:18:02.753Z,954.30
2019-04-23T11:19:15.618Z,954.35
2019-04-23T11:20:25.810Z,954.21
2019-04-23T11:21:20.730Z,954.27
2019-04-23T11:22:42.466Z,954.24
2019-04-23T11:23:17.536Z,954.24
2019-04-23T11:24:34.415Z,954.36
2019-04-23T11:25:29.976Z,954.30
2019-04-23T11:26:26.233Z,954.30
2019-04-23T11:27:25.966Z,954.24
2019-04-23T11:28:22.812Z,954.38
2019-04-23T11:29:19.670Z,954.30
2019-04-23T11:30:25.854Z,954.28
2019-04-23T11:31:23.762Z,954.32
2019-04-23T11:33:16.161Z,954.37
2019-04-23T11:35:24.364Z,954.23
2019-04-23T11:36:43.627Z,954.30
2019-04-23T11:37:24.973Z,954.23
2019-04-23T11:38:44.149Z,954.27
2019-04-23T11:39:17.060Z,954.20
2019-04-23T11:40:15.535Z,954.20
2019-04-23T11:41:22.847Z,954.17
2019-04-23T11:43:23.482Z,954.25
2019-04-23T11:44:22.107Z,954.27
2019-04-23T11:45:27.815Z,954.21
2019-04-23T11:46:32.264Z,954.27
2019-04-23T11:47:32.732Z,954.26
2019-04-23T11:48:32.947Z,954.27
2019-04-23T11:49:26.635Z,954.18
2019-04-23T11:52:21.323Z,954.26
2019-04-23T11:53:22.861Z,954.16
2019-04-23T11:54:17.706Z,954.17
2019-04-23T11:55:29.086Z,954.15
2019-04-23T11:56:32.487Z,954.20
2019-04-23T11:59:29.306Z,954.17
2019-04-23T12:00:26.851Z,954.15
2019-04-23T12:01:38.708Z,954.12
2019-04-23T12:02:19.404Z,954.13
2019-04-23T12:03:11.368Z,954.16
2019-04-23T12:04:19.676Z,954.11
2019-04-23T12:05:21.693Z,954.05
2019-04-23T12:06:16.876Z,954.14
2019-04-23T12:07:17.573Z,954.15
2019-04-23T12:08:26.812Z,954.15
2019-04-23T12:09:26.030Z,954.14
2019-04-23T12:10:26.833Z,954.11
2019-04-23T12:11:39.823Z,954.08
2019-04-23T12:12:17.274Z,954.14
2019-04-23T12:13:21.255Z,954.13
2019-04-23T12:14:24.268Z,954.10
2019-04-23T12:15:23.878Z,954.18
2019-04-23T12:16:20.400Z,954.17
2019-04-23T12:17:18.583Z,954.14
2019-04-23T12:18:19.970Z,954.09
2019-04-23T12:19:44.353Z,954.08
2019-04-23T12:20:33.447Z,954.08
2019-04-23T12:21:20.841Z,954.19
2019-04-23T12:22:22.217Z,954.21
2019-04-23T12:23:25.447Z,954.21
2019-04-23T12:24:27.113Z,954.17
2019-04-23T12:26:22.850Z,954.23
2019-04-23T12:27:25.931Z,954.22
2019-04-23T12:28:17.939Z,954.24
2019-04-23T12:29:20.313Z,954.11
2019-04-23T12:30:20.825Z,954.18
2019-04-23T12:31:17.737Z,954.19
2019-04-23T12:32:35.596Z,954.14
2019-04-23T12:33:24.605Z,954.13
2019-04-23T12:34:20.647Z,954.06
2019-04-23T12:35:19.447Z,954.09
2019-04-23T12:36:26.240Z,954.06
2019-04-23T12:37:26.696Z,954.05
2019-04-23T12:38:25.680Z,954.11
2019-04-23T12:39:18.942Z,954.11
2019-04-23T12:41:12.989Z,954.12
2019-04-23T12:42:38.750Z,954.20
2019-04-23T12:43:14.487Z,954.19
2019-04-23T12:44:16.208Z,954.11
2019-04-23T12:45:23.396Z,954.11
2019-04-23T12:46:08.872Z,954.11
2019-04-23T12:47:27.199Z,954.20
2019-04-23T12:48:32.263Z,954.06
2019-04-23T12:49:34.699Z,954.04
2019-04-23T12:50:41.875Z,954.00
2019-04-23T12:51:24.351Z,953.99
2019-04-23T12:52:17.055Z,953.99
2019-04-23T12:53:19.908Z,954.02
2019-04-23T12:54:21.546Z,954.01
2019-04-23T12:56:17.564Z,953.94
2019-04-23T12:57:17.431Z,953.99
2019-04-23T12:58:15.719Z,953.97
2019-04-23T12:59:20.277Z,953.86
2019-04-23T13:01:13.528Z,953.87
2019-04-23T13:02:25.723Z,953.89
2019-04-23T13:03:16.980Z,953.86
2019-04-23T13:04:17.874Z,953.88
2019-04-23T13:05:15.776Z,953.81
2019-04-23T13:06:10.332Z,953.84
2019-04-23T13:07:17.502Z,953.87
2019-04-23T13:08:33.284Z,953.76
2019-04-23T13:09:26.153Z,953.85
2019-04-23T13:10:15.620Z,953.84
2019-04-23T13:11:17.642Z,953.89
2019-04-23T13:12:20.297Z,953.82
2019-04-23T13:14:09.870Z,953.89
2019-04-23T13:16:18.074Z,953.91
2019-04-23T13:17:38.069Z,953.88
2019-04-23T13:18:15.344Z,953.86
2019-04-23T13:19:23.926Z,953.85
2019-04-23T13:20:19.454Z,953.76
2019-04-23T13:21:39.967Z,953.78
2019-04-23T13:22:21.529Z,953.84
2019-04-23T13:23:16.901Z,953.83
2019-04-23T13:24:09.529Z,953.91
2019-04-23T13:25:18.107Z,953.86
2019-04-23T13:26:04.123Z,953.84
2019-04-23T13:27:23.923Z,953.86
2019-04-23T13:28:18.732Z,953.82
2019-04-23T13:29:24.584Z,953.77
2019-04-23T13:30:17.160Z,953.81
2019-04-23T13:31:12.525Z,953.80
2019-04-23T13:32:14.926Z,953.78
2019-04-23T13:33:28.238Z,953.83
2019-04-23T13:35:25.561Z,953.81
2019-04-23T13:38:08.950Z,953.61
2019-04-23T13:39:02.382Z,953.73
2019-04-23T13:41:01.112Z,953.70
2019-04-23T13:41:58.581Z,953.65
2019-04-23T13:43:42.543Z,953.65
2019-04-23T13:44:52.052Z,953.64
2019-04-23T13:46:35.757Z,953.58
2019-04-23T13:47:53.284Z,953.55
2019-04-23T13:48:36.338Z,953.56
2019-04-23T13:49:45.283Z,953.62
2019-04-23T13:51:39.781Z,953.54
2019-04-23T13:55:04.371Z,953.58
2019-04-23T13:55:37.919Z,953.54
2019-04-23T13:57:14.438Z,953.51
2019-04-23T13:58:46.355Z,953.52
2019-04-23T13:59:46.860Z,953.50
2019-04-23T14:00:52.306Z,953.47
2019-04-23T14:01:54.390Z,953.56
2019-04-23T14:04:44.754Z,953.53
2019-04-23T14:05:43.232Z,953.60
2019-04-23T14:06:46.454Z,953.46
2019-04-23T14:07:48.450Z,953.49
2019-04-23T14:08:47.206Z,953.45
2019-04-23T14:09:47.173Z,953.48
2019-04-23T14:10:41.615Z,953.42
2019-04-23T14:11:30.912Z,953.41
2019-04-23T14:12:53.442Z,953.43
2019-04-23T14:13:52.114Z,953.45
2019-04-23T14:14:47.813Z,953.44
2019-04-23T14:15:44.973Z,953.39
2019-04-23T14:18:56.087Z,953.45
2019-04-23T14:19:41.784Z,953.43
2019-04-23T14:20:40.377Z,953.44
2019-04-23T14:21:37.462Z,953.44
2019-04-23T14:23:59.141Z,953.37
2019-04-23T14:25:02.051Z,953.39
2019-04-23T14:25:50.722Z,953.36
2019-04-23T14:27:51.910Z,953.36
2019-04-23T14:28:55.690Z,953.35
2019-04-23T14:29:48.314Z,953.31
2019-04-23T14:30:46.765Z,953.36
2019-04-23T14:31:36.868Z,953.33
2019-04-23T14:33:51.255Z,953.33
2019-04-23T14:34:43.893Z,953.35
2019-04-23T14:35:40.519Z,953.28
2019-04-23T14:36:42.858Z,953.37
2019-04-23T14:37:52.799Z,953.34
2019-04-23T14:39:43.732Z,953.32
2019-04-23T14:40:43.127Z,953.31
2019-04-23T14:42:03.547Z,953.28
2019-04-23T14:43:48.757Z,953.30
2019-04-23T14:44:44.461Z,953.28
2019-04-23T14:46:13.741Z,953.35
2019-04-23T14:46:49.923Z,953.35
2019-04-23T14:48:46.720Z,953.27
2019-04-23T14:49:45.547Z,953.28
2019-04-23T14:50:44.264Z,953.29
2019-04-23T14:52:50.650Z,953.30
2019-04-23T14:53:40.533Z,953.29
2019-04-23T14:55:15.362Z,953.29
2019-04-23T14:55:50.921Z,953.29
2019-04-23T14:57:03.090Z,953.33
2019-04-23T14:58:02.590Z,953.40
2019-04-23T14:59:37.709Z,953.24
2019-04-23T15:00:54.043Z,953.25
2019-04-23T15:02:44.616Z,953.26
2019-04-23T15:03:49.009Z,953.33
2019-04-23T15:04:39.743Z,953.36
2019-04-23T15:05:45.890Z,953.34
2019-04-23T15:06:43.255Z,953.37
2019-04-23T15:09:53.277Z,953.36
2019-04-23T15:11:05.249Z,953.27
2019-04-23T15:11:44.107Z,953.34
2019-04-23T15:14:46.543Z,953.43
2019-04-23T15:15:51.450Z,953.36
2019-04-23T15:17:40.136Z,953.31
2019-04-23T15:18:53.358Z,953.31
2019-04-23T15:19:40.170Z,953.32
2019-04-23T15:20:41.442Z,953.30
2019-04-23T15:21:53.716Z,953.31
2019-04-23T15:22:53.349Z,953.30
2019-04-23T15:23:51.492Z,953.37
2019-04-23T15:24:37.747Z,953.39
2019-04-23T15:25:43.921Z,953.40
2019-04-23T15:28:17.486Z,953.37
2019-04-23T15:29:27.488Z,953.30
2019-04-23T15:30:34.110Z,953.32
2019-04-23T15:31:42.831Z,953.29